sensor_id;sensor_type;location;lat;lon;timestamp;temperature;humidity
17762;DHT22;9005;48.838;10.112;2023-03-04T00:02:06;-0.30;99.90
17762;DHT22;9005;48.838;10.112;2023-03-04T00:09:27;-0.40;99.90
17762;DHT22;9005;48.838;10.112;2023-03-04T00:11:53;-0.40;99.90
17762;DHT22;9005;48.838;10.112;2023-03-04T00:14:21;-0.30;99.90
17762;DHT22;9005;48.838;10.112;2023-03-04T00:16:48;-0.40;99.90
17762;DHT22;9005;48.838;10.112;2023-03-04T00:19:16;-0.40;99.90
17762;DHT22;9005;48.838;10.112;2023-03-04T00:21:43;-0.50;99.90
17762;DHT22;9005;48.838;10.112;2023-03-04T00:24:09;-0.50;99.90
17762;DHT22;9005;48.838;10.112;2023-03-04T00:26:36;-0.50;99.90
17762;DHT22;9005;48.838;10.112;2023-03-04T00:29:03;-0.50;99.90
17762;DHT22;9005;48.838;10.112;2023-03-04T00:31:30;-0.50;99.90
17762;DHT22;9005;48.838;10.112;2023-03-04T00:33:56;-0.60;99.90
17762;DHT22;9005;48.838;10.112;2023-03-04T00:36:24;-0.60;99.90
17762;DHT22;9005;48.838;10.112;2023-03-04T00:38:51;-0.60;99.90
17762;DHT22;9005;48.838;10.112;2023-03-04T00:41:18;-0.60;99.90
17762;DHT22;9005;48.838;10.112;2023-03-04T00:43:44;-0.70;99.90
17762;DHT22;9005;48.838;10.112;2023-03-04T00:46:11;-0.70;99.90
17762;DHT22;9005;48.838;10.112;2023-03-04T00:48:38;-0.80;99.90
17762;DHT22;9005;48.838;10.112;2023-03-04T00:51:06;-0.80;99.90
17762;DHT22;9005;48.838;10.112;2023-03-04T00:53:34;-0.80;99.90
17762;DHT22;9005;48.838;10.112;2023-03-04T00:56:00;-0.80;99.90
17762;DHT22;9005;48.838;10.112;2023-03-04T00:58:27;-0.80;99.90
17762;DHT22;9005;48.838;10.112;2023-03-04T01:00:54;-0.80;99.90
17762;DHT22;9005;48.838;10.112;2023-03-04T01:03:21;-0.90;99.90
17762;DHT22;9005;48.838;10.112;2023-03-04T01:05:48;-0.90;99.90
17762;DHT22;9005;48.838;10.112;2023-03-04T01:08:15;-0.90;99.90
17762;DHT22;9005;48.838;10.112;2023-03-04T01:10:43;-1.00;99.90
17762;DHT22;9005;48.838;10.112;2023-03-04T01:13:10;-1.00;99.90
17762;DHT22;9005;48.838;10.112;2023-03-04T01:15:37;-1.00;99.90
17762;DHT22;9005;48.838;10.112;2023-03-04T01:18:03;-1.00;99.90
17762;DHT22;9005;48.838;10.112;2023-03-04T01:20:30;-1.00;99.90
17762;DHT22;9005;48.838;10.112;2023-03-04T01:22:57;-1.00;99.90
17762;DHT22;9005;48.838;10.112;2023-03-04T01:25:24;-1.00;99.90
17762;DHT22;9005;48.838;10.112;2023-03-04T01:27:52;-1.00;99.90
17762;DHT22;9005;48.838;10.112;2023-03-04T01:30:18;-1.00;99.90
17762;DHT22;9005;48.838;10.112;2023-03-04T01:32:45;-1.10;99.90
17762;DHT22;9005;48.838;10.112;2023-03-04T01:35:12;-1.10;99.90
17762;DHT22;9005;48.838;10.112;2023-03-04T01:37:39;-1.10;99.90
17762;DHT22;9005;48.838;10.112;2023-03-04T01:40:07;-1.10;99.90
17762;DHT22;9005;48.838;10.112;2023-03-04T01:42:35;-1.10;99.90
17762;DHT22;9005;48.838;10.112;2023-03-04T01:45:04;-1.10;99.90
17762;DHT22;9005;48.838;10.112;2023-03-04T01:47:32;-1.10;99.90
17762;DHT22;9005;48.838;10.112;2023-03-04T01:50:03;-1.10;99.90
17762;DHT22;9005;48.838;10.112;2023-03-04T01:52:32;-1.10;99.90
17762;DHT22;9005;48.838;10.112;2023-03-04T01:54:59;-1.10;99.90
17762;DHT22;9005;48.838;10.112;2023-03-04T01:57:26;-1.20;99.90
17762;DHT22;9005;48.838;10.112;2023-03-04T02:00:20;-1.20;99.90
17762;DHT22;9005;48.838;10.112;2023-03-04T02:02:49;-1.30;99.90
17762;DHT22;9005;48.838;10.112;2023-03-04T02:05:19;-1.30;99.90
17762;DHT22;9005;48.838;10.112;2023-03-04T02:07:46;-1.30;99.90
17762;DHT22;9005;48.838;10.112;2023-03-04T02:10:13;-1.40;99.90
17762;DHT22;9005;48.838;10.112;2023-03-04T02:12:41;-1.40;99.90
17762;DHT22;9005;48.838;10.112;2023-03-04T02:15:09;-1.40;99.90
17762;DHT22;9005;48.838;10.112;2023-03-04T02:17:37;-1.40;99.90
17762;DHT22;9005;48.838;10.112;2023-03-04T02:20:14;-1.50;99.90
17762;DHT22;9005;48.838;10.112;2023-03-04T02:22:47;-1.50;99.90
17762;DHT22;9005;48.838;10.112;2023-03-04T02:25:19;-1.60;99.90
17762;DHT22;9005;48.838;10.112;2023-03-04T02:27:48;-1.60;99.90
17762;DHT22;9005;48.838;10.112;2023-03-04T02:30:18;-1.60;99.90
17762;DHT22;9005;48.838;10.112;2023-03-04T02:32:45;-1.60;99.90
17762;DHT22;9005;48.838;10.112;2023-03-04T02:35:15;-1.70;99.90
17762;DHT22;9005;48.838;10.112;2023-03-04T02:37:42;-1.70;99.90
17762;DHT22;9005;48.838;10.112;2023-03-04T02:40:13;-1.80;99.90
17762;DHT22;9005;48.838;10.112;2023-03-04T02:42:43;-1.90;99.90
17762;DHT22;9005;48.838;10.112;2023-03-04T02:45:34;-2.00;99.90
17762;DHT22;9005;48.838;10.112;2023-03-04T02:48:02;-2.10;99.90
17762;DHT22;9005;48.838;10.112;2023-03-04T02:50:32;-2.10;99.90
17762;DHT22;9005;48.838;10.112;2023-03-04T02:53:00;-2.10;99.90
17762;DHT22;9005;48.838;10.112;2023-03-04T02:55:26;-2.20;99.90
17762;DHT22;9005;48.838;10.112;2023-03-04T02:57:54;-2.10;99.90
17762;DHT22;9005;48.838;10.112;2023-03-04T03:00:20;-2.10;99.90
17762;DHT22;9005;48.838;10.112;2023-03-04T03:02:49;-2.00;99.90
17762;DHT22;9005;48.838;10.112;2023-03-04T03:05:16;-1.90;99.90
17762;DHT22;9005;48.838;10.112;2023-03-04T03:07:43;-1.90;99.90
17762;DHT22;9005;48.838;10.112;2023-03-04T03:10:10;-1.80;99.90
17762;DHT22;9005;48.838;10.112;2023-03-04T03:12:37;-1.80;99.90
17762;DHT22;9005;48.838;10.112;2023-03-04T03:15:05;-1.80;99.90
17762;DHT22;9005;48.838;10.112;2023-03-04T03:17:32;-1.90;99.90
17762;DHT22;9005;48.838;10.112;2023-03-04T03:20:00;-1.90;99.90
17762;DHT22;9005;48.838;10.112;2023-03-04T03:22:27;-2.00;99.90
17762;DHT22;9005;48.838;10.112;2023-03-04T03:24:54;-2.00;99.90
17762;DHT22;9005;48.838;10.112;2023-03-04T03:27:20;-2.10;99.90
17762;DHT22;9005;48.838;10.112;2023-03-04T03:29:47;-1.50;99.90
17762;DHT22;9005;48.838;10.112;2023-03-04T03:32:14;-2.20;99.90
17762;DHT22;9005;48.838;10.112;2023-03-04T03:34:40;-2.30;99.90
17762;DHT22;9005;48.838;10.112;2023-03-04T03:37:09;-2.30;99.90
17762;DHT22;9005;48.838;10.112;2023-03-04T03:39:35;-2.30;99.90
17762;DHT22;9005;48.838;10.112;2023-03-04T03:42:02;-2.30;99.90
17762;DHT22;9005;48.838;10.112;2023-03-04T03:44:29;-2.30;99.90
17762;DHT22;9005;48.838;10.112;2023-03-04T03:46:56;-2.40;99.90
17762;DHT22;9005;48.838;10.112;2023-03-04T03:49:23;-2.40;99.90
17762;DHT22;9005;48.838;10.112;2023-03-04T03:51:49;-2.50;99.90
17762;DHT22;9005;48.838;10.112;2023-03-04T03:54:17;-2.50;99.90
17762;DHT22;9005;48.838;10.112;2023-03-04T03:56:44;-2.50;99.90
17762;DHT22;9005;48.838;10.112;2023-03-04T03:59:11;-2.60;99.90
17762;DHT22;9005;48.838;10.112;2023-03-04T04:01:38;-2.60;99.90
17762;DHT22;9005;48.838;10.112;2023-03-04T04:04:04;-2.70;99.90
17762;DHT22;9005;48.838;10.112;2023-03-04T04:06:31;-2.70;99.90
17762;DHT22;9005;48.838;10.112;2023-03-04T04:08:58;-2.80;99.90
17762;DHT22;9005;48.838;10.112;2023-03-04T04:11:26;-2.80;99.90
17762;DHT22;9005;48.838;10.112;2023-03-04T04:13:53;-2.80;99.90
17762;DHT22;9005;48.838;10.112;2023-03-04T04:16:20;-2.90;99.90
17762;DHT22;9005;48.838;10.112;2023-03-04T04:18:47;-2.90;99.90
17762;DHT22;9005;48.838;10.112;2023-03-04T04:21:13;-2.90;99.90
17762;DHT22;9005;48.838;10.112;2023-03-04T04:23:40;-2.80;99.90
17762;DHT22;9005;48.838;10.112;2023-03-04T04:26:07;-2.80;99.90
17762;DHT22;9005;48.838;10.112;2023-03-04T04:28:35;-2.70;99.90
17762;DHT22;9005;48.838;10.112;2023-03-04T04:31:06;-2.70;99.90
17762;DHT22;9005;48.838;10.112;2023-03-04T04:33:33;-2.80;99.90
17762;DHT22;9005;48.838;10.112;2023-03-04T04:35:59;-2.80;99.90
17762;DHT22;9005;48.838;10.112;2023-03-04T04:38:28;-2.80;99.90
17762;DHT22;9005;48.838;10.112;2023-03-04T04:40:56;-2.90;99.90
17762;DHT22;9005;48.838;10.112;2023-03-04T04:43:22;-2.90;99.90
17762;DHT22;9005;48.838;10.112;2023-03-04T04:45:51;-2.90;99.90
17762;DHT22;9005;48.838;10.112;2023-03-04T04:48:17;-2.90;99.90
17762;DHT22;9005;48.838;10.112;2023-03-04T04:50:44;-2.90;99.90
17762;DHT22;9005;48.838;10.112;2023-03-04T04:53:11;-2.90;99.90
17762;DHT22;9005;48.838;10.112;2023-03-04T04:55:38;-3.00;99.90
17762;DHT22;9005;48.838;10.112;2023-03-04T04:58:05;-3.00;99.90
17762;DHT22;9005;48.838;10.112;2023-03-04T05:00:32;-2.90;99.90
17762;DHT22;9005;48.838;10.112;2023-03-04T05:03:00;-2.90;99.90
17762;DHT22;9005;48.838;10.112;2023-03-04T05:05:27;-2.90;99.90
17762;DHT22;9005;48.838;10.112;2023-03-04T05:07:54;-2.90;99.90
17762;DHT22;9005;48.838;10.112;2023-03-04T05:10:20;-2.90;99.90
17762;DHT22;9005;48.838;10.112;2023-03-04T05:12:47;-2.90;99.90
17762;DHT22;9005;48.838;10.112;2023-03-04T05:15:14;-3.00;99.90
17762;DHT22;9005;48.838;10.112;2023-03-04T05:17:41;-3.00;99.90
17762;DHT22;9005;48.838;10.112;2023-03-04T05:20:10;-3.10;99.90
17762;DHT22;9005;48.838;10.112;2023-03-04T05:22:37;-3.00;99.90
17762;DHT22;9005;48.838;10.112;2023-03-04T05:25:04;-3.00;99.90
17762;DHT22;9005;48.838;10.112;2023-03-04T05:27:31;-3.00;99.90
17762;DHT22;9005;48.838;10.112;2023-03-04T05:29:58;-3.00;99.90
17762;DHT22;9005;48.838;10.112;2023-03-04T05:32:25;-3.00;99.90
17762;DHT22;9005;48.838;10.112;2023-03-04T05:34:52;-3.00;99.90
17762;DHT22;9005;48.838;10.112;2023-03-04T05:37:20;-3.00;99.90
17762;DHT22;9005;48.838;10.112;2023-03-04T05:39:46;-3.00;99.90
17762;DHT22;9005;48.838;10.112;2023-03-04T05:42:13;-3.00;99.90
17762;DHT22;9005;48.838;10.112;2023-03-04T05:44:40;-3.10;99.90
17762;DHT22;9005;48.838;10.112;2023-03-04T05:47:06;-3.10;99.90
17762;DHT22;9005;48.838;10.112;2023-03-04T05:49:33;-3.20;99.90
17762;DHT22;9005;48.838;10.112;2023-03-04T05:52:00;-3.20;99.90
17762;DHT22;9005;48.838;10.112;2023-03-04T05:54:28;-3.30;99.90
17762;DHT22;9005;48.838;10.112;2023-03-04T05:56:55;-3.20;99.90
17762;DHT22;9005;48.838;10.112;2023-03-04T05:59:21;-3.30;99.90
17762;DHT22;9005;48.838;10.112;2023-03-04T06:01:48;-3.20;99.90
17762;DHT22;9005;48.838;10.112;2023-03-04T06:04:16;-3.10;99.90
17762;DHT22;9005;48.838;10.112;2023-03-04T06:06:43;-3.00;99.90
17762;DHT22;9005;48.838;10.112;2023-03-04T06:09:12;-2.90;99.90
17762;DHT22;9005;48.838;10.112;2023-03-04T06:11:40;-2.80;99.90
17762;DHT22;9005;48.838;10.112;2023-03-04T06:14:07;-2.60;99.90
17762;DHT22;9005;48.838;10.112;2023-03-04T06:16:33;-2.40;99.90
17762;DHT22;9005;48.838;10.112;2023-03-04T06:19:00;-2.40;99.90
17762;DHT22;9005;48.838;10.112;2023-03-04T06:21:27;-2.30;99.90
17762;DHT22;9005;48.838;10.112;2023-03-04T06:23:54;-2.20;99.90
17762;DHT22;9005;48.838;10.112;2023-03-04T06:26:21;-2.10;99.90
17762;DHT22;9005;48.838;10.112;2023-03-04T06:28:49;-2.00;99.90
17762;DHT22;9005;48.838;10.112;2023-03-04T06:31:15;-2.00;99.90
17762;DHT22;9005;48.838;10.112;2023-03-04T06:33:42;-1.90;99.90
17762;DHT22;9005;48.838;10.112;2023-03-04T06:36:09;-1.90;99.90
17762;DHT22;9005;48.838;10.112;2023-03-04T06:38:36;-1.80;99.90
17762;DHT22;9005;48.838;10.112;2023-03-04T06:41:06;-1.70;99.90
17762;DHT22;9005;48.838;10.112;2023-03-04T06:43:33;-1.70;99.90
17762;DHT22;9005;48.838;10.112;2023-03-04T06:46:01;-1.60;99.90
17762;DHT22;9005;48.838;10.112;2023-03-04T06:48:28;-1.60;99.90
17762;DHT22;9005;48.838;10.112;2023-03-04T06:50:55;-1.50;99.90
17762;DHT22;9005;48.838;10.112;2023-03-04T06:53:22;-1.40;99.90
17762;DHT22;9005;48.838;10.112;2023-03-04T06:55:49;-1.30;99.90
17762;DHT22;9005;48.838;10.112;2023-03-04T06:58:16;-1.30;99.90
17762;DHT22;9005;48.838;10.112;2023-03-04T07:00:42;-1.30;99.90
17762;DHT22;9005;48.838;10.112;2023-03-04T07:03:11;-1.30;99.90
17762;DHT22;9005;48.838;10.112;2023-03-04T07:05:38;-1.30;99.90
17762;DHT22;9005;48.838;10.112;2023-03-04T07:08:05;-1.30;99.90
17762;DHT22;9005;48.838;10.112;2023-03-04T07:10:32;-1.30;99.90
17762;DHT22;9005;48.838;10.112;2023-03-04T07:12:59;-1.30;99.90
17762;DHT22;9005;48.838;10.112;2023-03-04T07:15:26;-1.30;99.90
17762;DHT22;9005;48.838;10.112;2023-03-04T07:17:53;-1.30;99.90
17762;DHT22;9005;48.838;10.112;2023-03-04T07:20:21;-1.20;99.90
17762;DHT22;9005;48.838;10.112;2023-03-04T07:22:48;-1.20;99.90
17762;DHT22;9005;48.838;10.112;2023-03-04T07:25:15;-1.20;99.90
17762;DHT22;9005;48.838;10.112;2023-03-04T07:27:42;-1.20;99.90
17762;DHT22;9005;48.838;10.112;2023-03-04T07:30:10;-1.20;99.90
17762;DHT22;9005;48.838;10.112;2023-03-04T07:32:37;-1.20;99.90
17762;DHT22;9005;48.838;10.112;2023-03-04T07:35:04;-1.20;99.90
17762;DHT22;9005;48.838;10.112;2023-03-04T07:37:33;-1.10;99.90
17762;DHT22;9005;48.838;10.112;2023-03-04T07:39:59;-1.20;99.90
17762;DHT22;9005;48.838;10.112;2023-03-04T07:42:26;-1.10;99.90
17762;DHT22;9005;48.838;10.112;2023-03-04T07:44:53;-1.10;99.90
17762;DHT22;9005;48.838;10.112;2023-03-04T07:47:20;-1.10;99.90
17762;DHT22;9005;48.838;10.112;2023-03-04T07:49:47;-1.20;99.90
17762;DHT22;9005;48.838;10.112;2023-03-04T07:52:14;-1.20;99.90
17762;DHT22;9005;48.838;10.112;2023-03-04T07:54:42;-1.20;99.90
17762;DHT22;9005;48.838;10.112;2023-03-04T07:57:08;-1.20;99.90
17762;DHT22;9005;48.838;10.112;2023-03-04T07:59:35;-1.20;99.90
17762;DHT22;9005;48.838;10.112;2023-03-04T08:02:02;-1.30;99.90
17762;DHT22;9005;48.838;10.112;2023-03-04T08:04:29;-1.30;99.90
17762;DHT22;9005;48.838;10.112;2023-03-04T08:06:55;-1.30;99.90
17762;DHT22;9005;48.838;10.112;2023-03-04T08:09:22;-1.30;99.90
17762;DHT22;9005;48.838;10.112;2023-03-04T08:11:50;-1.20;99.90
17762;DHT22;9005;48.838;10.112;2023-03-04T08:14:17;-1.20;99.90
17762;DHT22;9005;48.838;10.112;2023-03-04T08:16:44;-1.10;99.90
17762;DHT22;9005;48.838;10.112;2023-03-04T08:19:11;-1.20;99.90
17762;DHT22;9005;48.838;10.112;2023-03-04T08:21:38;-1.20;99.90
17762;DHT22;9005;48.838;10.112;2023-03-04T08:24:05;-1.10;99.90
17762;DHT22;9005;48.838;10.112;2023-03-04T08:26:35;-1.10;99.90
17762;DHT22;9005;48.838;10.112;2023-03-04T08:29:04;-1.10;99.90
17762;DHT22;9005;48.838;10.112;2023-03-04T08:31:32;-1.10;99.90
17762;DHT22;9005;48.838;10.112;2023-03-04T08:33:59;-1.10;99.90
17762;DHT22;9005;48.838;10.112;2023-03-04T08:36:25;-1.10;99.90
17762;DHT22;9005;48.838;10.112;2023-03-04T08:38:52;-1.10;99.90
17762;DHT22;9005;48.838;10.112;2023-03-04T08:41:19;-1.20;99.90
17762;DHT22;9005;48.838;10.112;2023-03-04T08:43:47;-1.20;99.90
17762;DHT22;9005;48.838;10.112;2023-03-04T08:46:15;-1.20;99.90
17762;DHT22;9005;48.838;10.112;2023-03-04T08:48:42;-1.10;99.90
17762;DHT22;9005;48.838;10.112;2023-03-04T08:51:09;-1.00;99.90
17762;DHT22;9005;48.838;10.112;2023-03-04T08:53:37;-0.90;99.90
17762;DHT22;9005;48.838;10.112;2023-03-04T08:56:05;-0.90;99.90
17762;DHT22;9005;48.838;10.112;2023-03-04T08:58:32;-0.90;99.90
17762;DHT22;9005;48.838;10.112;2023-03-04T09:01:00;-0.80;99.90
17762;DHT22;9005;48.838;10.112;2023-03-04T09:03:28;-0.80;99.90
17762;DHT22;9005;48.838;10.112;2023-03-04T09:05:56;-0.80;99.90
17762;DHT22;9005;48.838;10.112;2023-03-04T09:08:23;-0.70;99.90
17762;DHT22;9005;48.838;10.112;2023-03-04T09:10:52;-0.70;99.90
17762;DHT22;9005;48.838;10.112;2023-03-04T09:13:20;-0.70;99.90
17762;DHT22;9005;48.838;10.112;2023-03-04T09:15:49;-0.70;99.90
17762;DHT22;9005;48.838;10.112;2023-03-04T09:18:16;-0.60;99.90
17762;DHT22;9005;48.838;10.112;2023-03-04T09:20:45;-0.60;99.90
17762;DHT22;9005;48.838;10.112;2023-03-04T09:23:13;-0.50;99.90
17762;DHT22;9005;48.838;10.112;2023-03-04T09:25:41;-0.50;99.90
17762;DHT22;9005;48.838;10.112;2023-03-04T09:28:10;-0.40;99.90
17762;DHT22;9005;48.838;10.112;2023-03-04T09:30:37;-0.40;99.90
17762;DHT22;9005;48.838;10.112;2023-03-04T09:33:03;-0.30;99.90
17762;DHT22;9005;48.838;10.112;2023-03-04T09:35:30;-0.20;99.90
17762;DHT22;9005;48.838;10.112;2023-03-04T09:37:58;-0.20;99.90
17762;DHT22;9005;48.838;10.112;2023-03-04T09:40:27;-0.10;99.90
17762;DHT22;9005;48.838;10.112;2023-03-04T09:42:57;-0.10;99.90
17762;DHT22;9005;48.838;10.112;2023-03-04T09:45:32;-0.10;99.90
17762;DHT22;9005;48.838;10.112;2023-03-04T09:48:01;0.00;99.90
17762;DHT22;9005;48.838;10.112;2023-03-04T09:50:31;0.00;99.90
17762;DHT22;9005;48.838;10.112;2023-03-04T09:53:13;0.00;99.90
17762;DHT22;9005;48.838;10.112;2023-03-04T09:55:48;0.00;99.90
17762;DHT22;9005;48.838;10.112;2023-03-04T09:58:26;0.00;99.90
17762;DHT22;9005;48.838;10.112;2023-03-04T10:00:57;0.00;99.90
17762;DHT22;9005;48.838;10.112;2023-03-04T10:03:31;0.00;99.90
17762;DHT22;9005;48.838;10.112;2023-03-04T10:06:05;0.00;99.90
17762;DHT22;9005;48.838;10.112;2023-03-04T10:08:39;0.00;99.90
17762;DHT22;9005;48.838;10.112;2023-03-04T10:11:12;0.00;99.90
17762;DHT22;9005;48.838;10.112;2023-03-04T10:13:45;0.00;99.90
17762;DHT22;9005;48.838;10.112;2023-03-04T10:16:17;0.70;99.90
17762;DHT22;9005;48.838;10.112;2023-03-04T10:18:48;0.00;99.90
17762;DHT22;9005;48.838;10.112;2023-03-04T10:21:20;0.00;99.90
17762;DHT22;9005;48.838;10.112;2023-03-04T10:23:50;0.10;99.90
17762;DHT22;9005;48.838;10.112;2023-03-04T10:26:20;0.00;99.90
17762;DHT22;9005;48.838;10.112;2023-03-04T10:28:48;0.00;99.90
17762;DHT22;9005;48.838;10.112;2023-03-04T10:31:20;0.10;99.90
17762;DHT22;9005;48.838;10.112;2023-03-04T10:33:48;0.10;99.90
17762;DHT22;9005;48.838;10.112;2023-03-04T10:36:26;0.10;99.90
17762;DHT22;9005;48.838;10.112;2023-03-04T10:39:02;0.10;99.90
17762;DHT22;9005;48.838;10.112;2023-03-04T10:41:31;0.10;99.90
17762;DHT22;9005;48.838;10.112;2023-03-04T10:44:02;0.10;99.90
17762;DHT22;9005;48.838;10.112;2023-03-04T10:46:30;0.00;99.90
17762;DHT22;9005;48.838;10.112;2023-03-04T10:48:57;0.00;99.90
17762;DHT22;9005;48.838;10.112;2023-03-04T10:51:26;0.10;99.90
17762;DHT22;9005;48.838;10.112;2023-03-04T10:53:56;0.20;99.90
17762;DHT22;9005;48.838;10.112;2023-03-04T10:56:34;0.20;99.90
17762;DHT22;9005;48.838;10.112;2023-03-04T10:59:24;0.20;99.90
17762;DHT22;9005;48.838;10.112;2023-03-04T11:01:54;0.10;99.90
17762;DHT22;9005;48.838;10.112;2023-03-04T11:04:23;0.10;99.90
17762;DHT22;9005;48.838;10.112;2023-03-04T11:06:50;0.10;99.90
17762;DHT22;9005;48.838;10.112;2023-03-04T11:09:22;0.10;99.90
17762;DHT22;9005;48.838;10.112;2023-03-04T11:11:52;0.10;99.90
17762;DHT22;9005;48.838;10.112;2023-03-04T11:14:22;0.20;99.90
17762;DHT22;9005;48.838;10.112;2023-03-04T11:16:55;0.30;99.90
17762;DHT22;9005;48.838;10.112;2023-03-04T11:19:26;0.30;99.90
17762;DHT22;9005;48.838;10.112;2023-03-04T11:21:55;0.40;99.90
17762;DHT22;9005;48.838;10.112;2023-03-04T11:24:25;0.40;99.90
17762;DHT22;9005;48.838;10.112;2023-03-04T11:26:57;0.40;99.90
17762;DHT22;9005;48.838;10.112;2023-03-04T11:29:29;0.40;99.90
17762;DHT22;9005;48.838;10.112;2023-03-04T11:32:01;0.50;99.90
17762;DHT22;9005;48.838;10.112;2023-03-04T11:34:36;0.60;99.90
17762;DHT22;9005;48.838;10.112;2023-03-04T11:37:07;0.60;99.90
17762;DHT22;9005;48.838;10.112;2023-03-04T11:39:36;0.70;99.90
17762;DHT22;9005;48.838;10.112;2023-03-04T11:42:16;0.80;99.90
17762;DHT22;9005;48.838;10.112;2023-03-04T11:44:46;1.30;99.90
17762;DHT22;9005;48.838;10.112;2023-03-04T11:47:33;1.00;99.90
17762;DHT22;9005;48.838;10.112;2023-03-04T11:50:20;1.10;99.90
17762;DHT22;9005;48.838;10.112;2023-03-04T11:55:55;1.20;99.90
17762;DHT22;9005;48.838;10.112;2023-03-04T11:58:43;1.10;99.90
17762;DHT22;9005;48.838;10.112;2023-03-04T12:01:14;1.00;99.90
17762;DHT22;9005;48.838;10.112;2023-03-04T12:04:16;0.90;99.90
17762;DHT22;9005;48.838;10.112;2023-03-04T12:06:53;0.90;99.90
17762;DHT22;9005;48.838;10.112;2023-03-04T12:09:36;0.90;99.90
17762;DHT22;9005;48.838;10.112;2023-03-04T12:12:21;0.90;99.90
17762;DHT22;9005;48.838;10.112;2023-03-04T12:14:56;0.90;99.90
17762;DHT22;9005;48.838;10.112;2023-03-04T12:18:02;0.80;99.90
17762;DHT22;9005;48.838;10.112;2023-03-04T12:23:36;0.80;99.90
17762;DHT22;9005;48.838;10.112;2023-03-04T12:26:14;0.90;99.90
17762;DHT22;9005;48.838;10.112;2023-03-04T12:28:51;0.90;99.90
17762;DHT22;9005;48.838;10.112;2023-03-04T12:31:31;0.90;99.90
17762;DHT22;9005;48.838;10.112;2023-03-04T12:34:11;0.90;99.90
17762;DHT22;9005;48.838;10.112;2023-03-04T12:36:49;0.90;99.90
17762;DHT22;9005;48.838;10.112;2023-03-04T12:39:25;0.90;99.90
17762;DHT22;9005;48.838;10.112;2023-03-04T12:42:03;0.90;99.90
17762;DHT22;9005;48.838;10.112;2023-03-04T12:44:36;0.90;99.90
17762;DHT22;9005;48.838;10.112;2023-03-04T12:47:16;1.00;99.90
17762;DHT22;9005;48.838;10.112;2023-03-04T12:49:54;1.10;99.90
17762;DHT22;9005;48.838;10.112;2023-03-04T12:52:32;1.10;99.90
17762;DHT22;9005;48.838;10.112;2023-03-04T12:55:08;1.20;99.90
17762;DHT22;9005;48.838;10.112;2023-03-04T12:57:35;1.30;99.90
17762;DHT22;9005;48.838;10.112;2023-03-04T13:00:13;1.30;99.90
17762;DHT22;9005;48.838;10.112;2023-03-04T13:03:05;1.30;99.90
17762;DHT22;9005;48.838;10.112;2023-03-04T13:06:01;1.30;99.90
17762;DHT22;9005;48.838;10.112;2023-03-04T13:08:35;1.20;99.90
17762;DHT22;9005;48.838;10.112;2023-03-04T13:11:42;1.20;99.90
17762;DHT22;9005;48.838;10.112;2023-03-04T13:14:27;1.20;99.90
17762;DHT22;9005;48.838;10.112;2023-03-04T13:16:55;1.20;99.90
17762;DHT22;9005;48.838;10.112;2023-03-04T13:19:49;1.20;99.90
17762;DHT22;9005;48.838;10.112;2023-03-04T13:22:26;1.30;99.90
17762;DHT22;9005;48.838;10.112;2023-03-04T13:24:53;1.30;99.90
17762;DHT22;9005;48.838;10.112;2023-03-04T13:27:43;1.40;99.90
17762;DHT22;9005;48.838;10.112;2023-03-04T13:30:38;1.40;99.90
17762;DHT22;9005;48.838;10.112;2023-03-04T13:33:41;1.40;99.90
17762;DHT22;9005;48.838;10.112;2023-03-04T13:46:39;1.80;99.90
17762;DHT22;9005;48.838;10.112;2023-03-04T13:49:14;2.50;99.90
17762;DHT22;9005;48.838;10.112;2023-03-04T13:51:44;1.60;99.90
17762;DHT22;9005;48.838;10.112;2023-03-04T13:54:19;1.50;99.90
17762;DHT22;9005;48.838;10.112;2023-03-04T13:56:55;1.50;99.90
17762;DHT22;9005;48.838;10.112;2023-03-04T13:59:39;1.50;99.90
17762;DHT22;9005;48.838;10.112;2023-03-04T14:02:11;1.50;99.90
17762;DHT22;9005;48.838;10.112;2023-03-04T14:04:42;1.40;99.90
17762;DHT22;9005;48.838;10.112;2023-03-04T14:07:18;1.40;99.90
17762;DHT22;9005;48.838;10.112;2023-03-04T14:09:56;1.40;99.90
17762;DHT22;9005;48.838;10.112;2023-03-04T14:12:25;1.30;99.90
17762;DHT22;9005;48.838;10.112;2023-03-04T14:14:54;1.30;99.90
17762;DHT22;9005;48.838;10.112;2023-03-04T14:17:25;1.20;99.90
17762;DHT22;9005;48.838;10.112;2023-03-04T14:19:53;1.30;99.90
17762;DHT22;9005;48.838;10.112;2023-03-04T14:22:23;1.30;99.90
17762;DHT22;9005;48.838;10.112;2023-03-04T14:25:02;1.40;99.90
17762;DHT22;9005;48.838;10.112;2023-03-04T14:27:31;1.30;99.90
17762;DHT22;9005;48.838;10.112;2023-03-04T14:30:01;1.40;99.90
17762;DHT22;9005;48.838;10.112;2023-03-04T14:32:29;1.40;99.90
17762;DHT22;9005;48.838;10.112;2023-03-04T14:34:58;1.30;99.90
17762;DHT22;9005;48.838;10.112;2023-03-04T14:37:34;1.20;99.90
17762;DHT22;9005;48.838;10.112;2023-03-04T14:40:05;1.20;99.90
17762;DHT22;9005;48.838;10.112;2023-03-04T14:42:36;1.10;99.90
17762;DHT22;9005;48.838;10.112;2023-03-04T14:45:05;1.10;99.90
17762;DHT22;9005;48.838;10.112;2023-03-04T14:47:34;1.00;99.90
17762;DHT22;9005;48.838;10.112;2023-03-04T14:50:05;1.00;99.90
17762;DHT22;9005;48.838;10.112;2023-03-04T14:52:35;1.00;99.90
17762;DHT22;9005;48.838;10.112;2023-03-04T14:55:18;1.00;99.90
17762;DHT22;9005;48.838;10.112;2023-03-04T14:57:47;0.70;99.90
17762;DHT22;9005;48.838;10.112;2023-03-04T15:00:23;1.00;99.90
17762;DHT22;9005;48.838;10.112;2023-03-04T15:02:52;0.90;99.90
17762;DHT22;9005;48.838;10.112;2023-03-04T15:05:23;0.90;99.90
17762;DHT22;9005;48.838;10.112;2023-03-04T15:07:51;0.90;99.90
17762;DHT22;9005;48.838;10.112;2023-03-04T15:10:22;1.00;99.90
17762;DHT22;9005;48.838;10.112;2023-03-04T15:12:51;1.00;99.90
17762;DHT22;9005;48.838;10.112;2023-03-04T15:15:37;1.00;99.90
17762;DHT22;9005;48.838;10.112;2023-03-04T15:18:21;1.00;99.90
17762;DHT22;9005;48.838;10.112;2023-03-04T15:20:53;0.90;99.90
17762;DHT22;9005;48.838;10.112;2023-03-04T15:23:20;0.80;99.90
17762;DHT22;9005;48.838;10.112;2023-03-04T15:25:51;0.90;99.90
17762;DHT22;9005;48.838;10.112;2023-03-04T15:28:19;0.80;99.90
17762;DHT22;9005;48.838;10.112;2023-03-04T15:30:46;0.90;99.90
17762;DHT22;9005;48.838;10.112;2023-03-04T15:33:13;0.80;99.90
17762;DHT22;9005;48.838;10.112;2023-03-04T15:35:49;0.80;99.90
17762;DHT22;9005;48.838;10.112;2023-03-04T15:38:17;0.80;99.90
17762;DHT22;9005;48.838;10.112;2023-03-04T15:40:45;0.80;99.90
17762;DHT22;9005;48.838;10.112;2023-03-04T15:43:16;0.80;99.90
17762;DHT22;9005;48.838;10.112;2023-03-04T15:45:43;0.80;99.90
17762;DHT22;9005;48.838;10.112;2023-03-04T15:48:11;0.80;99.90
17762;DHT22;9005;48.838;10.112;2023-03-04T15:50:40;0.90;99.90
17762;DHT22;9005;48.838;10.112;2023-03-04T15:53:11;0.80;99.90
17762;DHT22;9005;48.838;10.112;2023-03-04T15:55:39;0.80;99.90
17762;DHT22;9005;48.838;10.112;2023-03-04T15:58:05;0.70;99.90
17762;DHT22;9005;48.838;10.112;2023-03-04T16:00:33;0.70;99.90
17762;DHT22;9005;48.838;10.112;2023-03-04T16:03:00;0.70;99.90
17762;DHT22;9005;48.838;10.112;2023-03-04T16:05:27;0.70;99.90
17762;DHT22;9005;48.838;10.112;2023-03-04T16:07:54;0.60;99.90
17762;DHT22;9005;48.838;10.112;2023-03-04T16:10:24;0.60;99.90
17762;DHT22;9005;48.838;10.112;2023-03-04T16:12:51;0.60;99.90
17762;DHT22;9005;48.838;10.112;2023-03-04T16:15:20;0.60;99.90
17762;DHT22;9005;48.838;10.112;2023-03-04T16:17:49;0.60;99.90